• Join FlightAware (Why Join?)
  • Login
  • US Flag 
07:18AM EDT


 

Airport Tracker/Info


-or-


 

Live Flight TrackerFlight Track Log ✈ UAL5881 ✈ 23-Dec-2013 ✈ KIND - KIAD

Flight Track Log - Related Links

Times and Time Zones

All times are in EST time to prevent confusion due to time zone crossing. See the UAL5881 flight status page for this flight to view local times or setup timezone preferences in your user account.

Time Position Orientation Groundspeed Altitude Reporting Facility
EST Latitude Longitude Course Direction KTS MPH feet Rate Location/Type
10:37AM 39.7000 -86.3000 83° East 154 177 1,500  Level Indianapolis TRACON
10:38AM 39.6833 -86.3333 237° Southwest 160 184 2,900 1,740 Climbing Indianapolis TRACON
10:39AM 39.6333 -86.2833 142° Southeast 262 302 4,500 1,860 Climbing Indianapolis TRACON
10:40AM 39.6942 -85.8385 79° East  Level Estimated
10:40AM 39.6336 -86.1875 90° East 273 314 6,900  Level Indianapolis Center
10:41AM 39.6862 -85.6866 74° East  Level Estimated
10:41AM 39.6597 -86.0914 71° East 284 327 9,100  Level Indianapolis Center
10:42AM 39.6779 -85.5347 83° East  Level Estimated
10:42AM 39.6872 -85.9908 70° East 295 339 10,600  Level Indianapolis Center
10:43AM 39.7197 -85.8683 71° East 349 402 11,300 1,020 Climbing Indianapolis Center
10:44AM 39.7533 -85.7397 71° East 375 432 12,800 1,560 Climbing Indianapolis Center
10:45AM 39.7886 -85.5792 74° East 386 444 14,500 1,440 Climbing Indianapolis Center
10:46AM 39.7964 -85.4344 86° East 399 459 15,800 1,080 Climbing Indianapolis Center
10:47AM 39.8069 -85.2869 85° East 409 471 16,800 900 Climbing Indianapolis Center
10:48AM 39.8169 -85.1325 85° East 427 491 17,700 720 Climbing Indianapolis Center
10:49AM 39.8272 -84.9758 85° East 436 502 18,400 840 Climbing Indianapolis Center
10:50AM 39.8358 -84.8072 86° East 449 517 19,500 1,020 Climbing Indianapolis Center
10:51AM 39.8469 -84.6442 85° East 455 524 20,600 1,020 Climbing Indianapolis Center
10:52AM 39.8572 -84.4758 85° East 466 536 21,700 780 Climbing Indianapolis Center
10:53AM 39.8678 -84.3028 85° East 478 550 22,200 780 Climbing Indianapolis Center
10:54AM 39.8797 -84.0836 86° East 505 581 23,300 1,020 Climbing Indianapolis Center
10:55AM 39.8900 -83.9003 86° East 508 585 24,400 1,380 Climbing Indianapolis Center
10:56AM 39.8997 -83.7181 86° East 504 580 26,200 1,560 Climbing Indianapolis Center
10:57AM 39.9083 -83.5381 86° East 492 566 27,600 1,260 Climbing Indianapolis Center
10:58AM 39.9189 -83.3536 86° East 489 563 28,800 1,200 Climbing Indianapolis Center
10:59AM 39.9269 -83.1767 87° East 487 560 30,100 1,260 Climbing Indianapolis Center
11:00AM 39.9358 -83.0017 86° East 485 558 31,500 1,260 Climbing Indianapolis Center
11:01AM 39.9436 -82.8297 87° East 479 551 32,800 720 Climbing Indianapolis Center
11:02AM 39.9511 -82.6522 87° East 487 560 33,000 60 Climbing Indianapolis Center
11:03AM 39.9581 -82.4639 87° East 514 592 33,000 120 Level Indianapolis Center
11:04AM 39.9669 -82.2697 87° East 534 615 33,300 720 Climbing Indianapolis Center
11:05AM 39.9553 -82.0486 94° East 511 588 34,500 780 Climbing Indianapolis Center
11:06AM 39.9250 -81.8808 103° East 481 554 35,000 240 Climbing Indianapolis Center
11:07AM 39.8953 -81.7072 103° East 487 560 35,000  Level Indianapolis Center
11:09AM 39.8633 -81.5294 103° East 501 577 35,000 -180 Level Indianapolis Center
11:10AM 39.8286 -81.3292 103° East 507 583 34,700 -720 Descending Indianapolis Center
11:11AM 39.7972 -81.1528 103° East 501 577 33,600 -840 Descending Indianapolis Center
11:12AM 39.7647 -80.9753 103° East 502 578 33,000 -300 Descending Indianapolis Center
11:13AM 39.7325 -80.8006 103° East 498 573 33,000  Level Indianapolis Center
11:14AM 39.7000 -80.6242 103° East 500 575 33,000  Level Indianapolis Center
11:14AM 39.6775 -80.4997 103° East 499 574 33,000  Level Cleveland Center
11:15AM 39.6450 -80.3256 104° East 501 577 33,000  Level Cleveland Center
11:16AM 39.6119 -80.1514 104° East 501 577 33,000  Level Cleveland Center
11:17AM 39.5978 -80.0542 101° East 494 568 33,000 -1,020 Level Washington Center
11:18AM 39.5642 -79.8853 104° East 483 556 31,500 -1,920 Descending Washington Center
11:19AM 39.5328 -79.7139 103° East 483 556 29,100 -2,220 Descending Washington Center
11:20AM 39.5031 -79.5453 103° East 483 556 27,100 -1,740 Descending Washington Center
11:21AM 39.4731 -79.3769 103° East 483 556 25,700 -1,440 Descending Washington Center
11:22AM 39.4439 -79.2358 105° East 477 549 24,300 -1,200 Descending Washington Center
11:23AM 39.4131 -79.0811 104° East 458 527 23,400 -1,260 Descending Washington Center
11:24AM 39.3861 -78.9267 103° East 443 510 21,900 -1,920 Descending Washington Center
11:25AM 39.3611 -78.7806 102° East 428 493 19,600 -2,280 Descending Washington Center
11:26AM 39.3356 -78.6344 103° East 422 486 17,300 -2,340 Descending Washington Center
11:27AM 39.3100 -78.4914 103° East 417 480 15,000 -2,100 Descending Washington Center
11:28AM 39.2797 -78.3614 107° East 401 461 13,200 -1,860 Descending Washington Center
11:29AM 39.2297 -78.2603 123° Southeast 351 404 11,400 -1,500 Descending Washington Center
11:30AM 39.1817 -78.1703 125° Southeast 327 376 10,200 -960 Descending Washington Center
11:31AM 39.1397 -78.0883 123° Southeast 295 339 9,500 -600 Descending Washington Center
11:32AM 39.0956 -78.0067 125° Southeast 281 323 9,100 -840 Descending Washington Center
11:33AM 39.0514 -77.9250 125° Southeast 281 323 7,900 -1,440 Descending Washington Center
11:34AM 39.0131 -77.8464 122° Southeast 269 310 6,300 -960 Descending Washington Center
11:35AM 38.9669 -77.7594 124° Southeast 269 310 6,000 -180 Descending Washington Center
11:36AM 38.9581 -77.6711 97° East 269 310 6,000  Level Washington Center
11:37AM 38.9167 -77.6000 127° Southeast 257 296 6,000 -240 Level Potomac TRACON
11:38AM 38.8333 -77.5667 163° South 244 281 5,600 -900 Descending Potomac TRACON
11:39AM 38.7833 -77.5833 195° South 214 246 4,400 -1,200 Descending Potomac TRACON
11:40AM 38.7333 -77.5500 153° Southeast 239 275 3,400 -780 Descending Potomac TRACON
11:41AM 38.7500 -77.4833 72° East 211 243 2,900 -600 Descending Potomac TRACON
11:42AM 38.8000 -77.4667 15° North 189 217 2,300 -480 Descending Potomac TRACON
11:43AM 38.8500 -77.4667 360° North 159 183 2,100 -480 Descending Potomac TRACON
11:44AM 38.8833 -77.4667 360° North 118 136 1,500 -660 Descending Potomac TRACON
11:44AM 38.9167 -77.4667 360° North 122 140 900 -720 Descending Potomac TRACON